Time;durP1;ratioP1;P1;durP2;ratioP2;P2;SDS_P1;SDS_P2;PMS_P1;PMS_P2;Temp;Humidity;BMP_temperature;BMP_pressure;BME280_temperature;BME280_humidity;BME280_pressure;Samples;Min_cycle;Max_cycle;Signal;HPM_P1;HPM_P2
2023/06/01 00:00:10;;;;;;;;;6.00;5.00;;;;;24.08;50.97;101559.19;5076838;28;46607;-81
2023/06/01 00:02:36;;;;;;;;;6.00;6.00;;;;;24.03;50.92;101560.22;5077397;28;45393;-79
2023/06/01 00:05:01;;;;;;;;;7.33;5.33;;;;;24.00;51.39;101557.63;5079419;28;45407;-79
2023/06/01 00:07:29;;;;;;;;;10.00;5.00;;;;;23.96;51.69;101561.34;5074704;28;45348;-81
2023/06/01 00:09:55;;;;;;;;;6.33;6.00;;;;;23.94;51.75;101560.53;5070004;28;47445;-80
2023/06/01 00:12:20;;;;;;;;;9.33;7.00;;;;;23.91;52.43;101557.91;5072222;28;45335;-78
2023/06/01 00:14:45;;;;;;;;;8.67;7.00;;;;;23.88;52.42;101559.84;5073973;28;62755;-79
2023/06/01 00:17:11;;;;;;;;;6.00;6.00;;;;;23.84;52.32;101560.88;5076076;27;45537;-79
2023/06/01 00:19:38;;;;;;;;;5.00;4.67;;;;;23.82;52.88;101554.66;5078070;28;53715;-80
2023/06/01 00:22:04;;;;;;;;;5.67;5.00;;;;;23.79;53.11;101558.31;5074826;28;45482;-79
2023/06/01 00:24:29;;;;;;;;;10.00;7.67;;;;;23.74;53.70;101546.78;5078347;28;45172;-80
2023/06/01 00:26:54;;;;;;;;;8.00;6.33;;;;;23.69;53.83;101548.75;5078500;28;45692;-81
2023/06/01 00:29:20;;;;;;;;;9.00;6.00;;;;;23.67;53.99;101556.03;5065540;28;67813;-80
2023/06/01 00:31:46;;;;;;;;;6.00;6.00;;;;;23.62;54.43;101550.75;5065715;28;45350;-79
2023/06/01 00:34:12;;;;;;;;;8.00;6.33;;;;;23.57;54.61;101552.69;5057268;28;45368;-79
2023/06/01 00:36:37;;;;;;;;;8.00;6.67;;;;;23.52;54.83;101547.44;5078415;28;45549;-79
2023/06/01 00:39:03;;;;;;;;;8.33;7.33;;;;;23.50;54.98;101560.09;5078245;28;47298;-80
2023/06/01 00:41:30;;;;;;;;;7.33;7.00;;;;;23.48;55.42;101559.25;5077497;28;45435;-79
2023/06/01 00:43:55;;;;;;;;;10.33;7.00;;;;;23.44;55.80;101554.91;5071186;28;45339;-81
2023/06/01 00:46:20;;;;;;;;;7.00;6.33;;;;;23.40;55.92;101561.31;5077785;28;62970;-77
2023/06/01 00:48:46;;;;;;;;;7.33;7.33;;;;;23.38;56.35;101560.47;5078322;28;45502;-79
2023/06/01 00:51:14;;;;;;;;;7.67;7.67;;;;;23.32;56.75;101552.56;5077862;28;45233;-78
2023/06/01 00:53:40;;;;;;;;;10.00;9.00;;;;;23.30;56.96;101550.84;5067195;28;45423;-80
2023/06/01 00:56:05;;;;;;;;;11.67;7.67;;;;;23.26;56.98;101552.75;5070532;28;45267;-79
2023/06/01 00:58:31;;;;;;;;;9.00;7.33;;;;;23.24;57.74;101557.31;5046861;28;46366;-78
2023/06/01 01:00:56;;;;;;;;;7.67;7.00;;;;;23.21;57.92;101560.97;5057353;28;63101;-79
2023/06/01 01:03:25;;;;;;;;;7.00;7.00;;;;;23.18;58.12;101553.00;5054008;28;58988;-79
2023/06/01 01:05:57;;;;;;;;;10.67;8.00;;;;;23.15;58.46;101552.19;5064127;28;45484;-79
2023/06/01 01:08:37;;;;;;;;;9.00;7.67;;;;;23.12;58.56;101563.09;5060315;28;46851;-80
2023/06/01 01:11:29;;;;;;;;;8.00;7.00;;;;;23.09;58.87;101557.78;5077700;28;45496;-78
2023/06/01 01:14:07;;;;;;;;;10.00;8.00;;;;;23.05;59.30;101556.97;5054159;28;45510;-82
2023/06/01 01:16:46;;;;;;;;;7.00;7.00;;;;;23.02;59.52;101559.78;5060554;28;45447;-79
2023/06/01 01:19:35;;;;;;;;;7.67;7.33;;;;;22.99;59.77;101562.53;5059273;28;46902;-78
2023/06/01 01:22:20;;;;;;;;;9.00;7.00;;;;;22.95;59.80;101563.53;5051434;28;45233;-82
2023/06/01 01:25:00;;;;;;;;;12.33;8.33;;;;;22.92;60.71;101563.66;5045674;28;45553;-79
2023/06/01 01:28:00;;;;;;;;;14.00;7.67;;;;;22.88;60.78;101567.34;5077712;28;45693;-79
2023/06/01 01:30:27;;;;;;;;;10.00;9.00;;;;;22.85;61.34;101575.47;5031388;28;47962;-78
2023/06/01 01:32:54;;;;;;;;;14.33;9.33;;;;;22.80;61.43;101570.25;5077864;28;45715;-79
2023/06/01 01:35:20;;;;;;;;;8.00;8.00;;;;;22.76;62.04;101565.84;5047393;28;45305;-79
2023/06/01 01:37:53;;;;;;;;;10.00;8.33;;;;;22.71;62.14;101567.78;5059226;28;45502;-78
2023/06/01 01:40:18;;;;;;;;;13.00;11.00;;;;;22.67;62.40;101566.09;5077313;28;46656;-80
2023/06/01 01:42:44;;;;;;;;;8.00;8.00;;;;;22.63;62.81;101575.19;5077021;28;45280;-80
2023/06/01 01:45:10;;;;;;;;;11.33;10.00;;;;;22.57;63.17;101570.84;5077765;28;45185;-79
2023/06/01 01:47:40;;;;;;;;;12.00;9.33;;;;;22.54;63.45;101564.69;5076129;28;49129;-78
2023/06/01 01:50:09;;;;;;;;;10.33;9.00;;;;;22.51;63.64;101570.13;5077527;28;46410;-78
2023/06/01 01:52:38;;;;;;;;;10.00;8.00;;;;;22.48;64.29;101568.44;5073753;28;45405;-81
2023/06/01 01:55:06;;;;;;;;;8.33;7.00;;;;;22.43;64.43;101567.66;5059031;28;45572;-78
2023/06/01 01:57:34;;;;;;;;;12.33;11.67;;;;;22.39;64.79;101566.84;5057500;28;45550;-78
2023/06/01 02:00:00;;;;;;;;;10.33;9.33;;;;;22.35;64.94;101567.84;5048846;28;47537;-81
2023/06/01 02:02:25;;;;;;;;;11.00;9.00;;;;;22.31;65.46;101571.53;5055485;28;45370;-78
2023/06/01 02:04:50;;;;;;;;;13.67;9.67;;;;;22.28;65.84;101568.94;5077671;28;45278;-78
2023/06/01 02:07:16;;;;;;;;;10.00;8.67;;;;;22.26;66.19;101567.19;5074796;28;62127;-79
2023/06/01 02:09:41;;;;;;;;;14.00;12.33;;;;;22.22;66.47;101572.69;5072401;28;62093;-81
2023/06/01 02:12:07;;;;;;;;;13.67;12.67;;;;;22.18;66.91;101570.09;5076181;28;45300;-79
2023/06/01 02:14:33;;;;;;;;;14.00;10.33;;;;;22.16;66.69;101567.44;5056685;28;45449;-79
2023/06/01 02:17:00;;;;;;;;;13.33;10.00;;;;;22.12;67.32;101564.88;5056398;28;45558;-78
2023/06/01 02:19:26;;;;;;;;;21.33;11.33;;;;;22.09;67.94;101555.03;5053303;28;46561;-78
2023/06/01 02:21:51;;;;;;;;;13.67;13.33;;;;;22.07;67.77;101556.00;5055934;28;45362;-79
2023/06/01 02:24:17;;;;;;;;;19.00;13.33;;;;;22.04;68.55;101548.00;5054948;28;45146;-81
2023/06/01 02:26:43;;;;;;;;;12.67;12.00;;;;;22.01;68.79;101551.66;5055879;28;45496;-78
2023/06/01 02:29:08;;;;;;;;;11.00;11.00;;;;;22.00;69.26;101554.38;5056437;28;47591;-79
2023/06/01 02:31:36;;;;;;;;;16.00;13.00;;;;;21.95;69.37;101558.09;5060973;28;52848;-78
2023/06/01 02:34:02;;;;;;;;;15.00;12.67;;;;;21.92;69.41;101563.53;5056468;28;51200;-78
2023/06/01 02:36:28;;;;;;;;;15.67;14.33;;;;;21.89;70.23;101555.53;5056556;28;45367;-82
2023/06/01 02:38:54;;;;;;;;;12.00;12.00;;;;;21.86;70.41;101560.09;5056238;28;46537;-78
2023/06/01 02:41:21;;;;;;;;;14.33;10.67;;;;;21.84;70.30;101552.09;5046707;28;45877;-81
2023/06/01 02:43:46;;;;;;;;;12.33;12.33;;;;;21.80;71.13;101561.13;5050324;28;45264;-78
2023/06/01 02:46:12;;;;;;;;;13.67;11.67;;;;;21.77;71.24;101553.13;5045996;28;45547;-82
2023/06/01 02:48:37;;;;;;;;;16.67;13.00;;;;;21.73;71.50;101554.13;5037572;28;46652;-80
2023/06/01 02:51:02;;;;;;;;;16.67;14.33;;;;;21.70;72.25;101551.50;5071901;28;66127;-79
2023/06/01 02:53:28;;;;;;;;;16.00;14.67;;;;;21.67;71.79;101555.16;5061506;28;58554;-79
2023/06/01 02:55:53;;;;;;;;;20.00;15.33;;;;;21.65;72.76;101562.38;5055061;28;45276;-79
2023/06/01 02:58:19;;;;;;;;;17.00;16.00;;;;;21.64;72.57;101562.41;5056579;28;47138;-78
2023/06/01 03:00:45;;;;;;;;;18.00;15.00;;;;;21.60;73.28;101560.72;5054475;28;64619;-80
2023/06/01 03:03:11;;;;;;;;;16.33;13.00;;;;;21.59;73.45;101567.00;5056600;28;45407;-79
2023/06/01 03:05:37;;;;;;;;;14.67;14.67;;;;;21.55;73.81;101560.81;5055571;28;45406;-80
2023/06/01 03:08:02;;;;;;;;;19.00;16.67;;;;;21.54;74.01;101563.53;5055375;28;46730;-79
2023/06/01 03:10:28;;;;;;;;;18.00;15.67;;;;;21.53;74.28;101564.47;5056190;28;53020;-78
2023/06/01 03:12:53;;;;;;;;;18.33;15.33;;;;;21.52;75.02;101566.28;5055440;28;45567;-78
2023/06/01 03:15:19;;;;;;;;;18.00;14.33;;;;;21.50;75.05;101567.22;5055676;28;61193;-77
2023/06/01 03:17:44;;;;;;;;;15.33;15.33;;;;;21.48;75.28;101561.00;5055753;28;47150;-82
2023/06/01 03:20:14;;;;;;;;;20.67;17.67;;;;;21.45;75.74;101560.13;5055785;28;63283;-81
2023/06/01 03:22:43;;;;;;;;;19.00;15.00;;;;;21.44;75.49;101558.38;5053844;28;45621;-81
2023/06/01 03:25:12;;;;;;;;;20.00;17.00;;;;;21.40;76.07;101556.66;5056580;28;45614;-81
2023/06/01 03:27:38;;;;;;;;;18.67;18.67;;;;;21.40;76.13;101562.03;5036212;28;47521;-78
2023/06/01 03:30:03;;;;;;;;;19.67;15.33;;;;;21.39;76.57;101559.38;5054970;28;45566;-79
2023/06/01 03:32:29;;;;;;;;;23.33;20.00;;;;;21.36;76.60;101557.66;5055775;28;45526;-82
2023/06/01 03:34:55;;;;;;;;;18.33;16.33;;;;;21.35;76.84;101547.81;5046450;28;45469;-78
2023/06/01 03:37:20;;;;;;;;;19.33;17.33;;;;;21.35;76.99;101557.69;5059160;28;47382;-78
2023/06/01 03:39:46;;;;;;;;;19.33;16.00;;;;;21.32;77.12;101566.72;5058990;28;45342;-78
2023/06/01 03:42:11;;;;;;;;;16.33;16.33;;;;;21.31;77.38;101566.75;5056897;28;57475;-79
2023/06/01 03:44:36;;;;;;;;;17.00;16.00;;;;;21.27;77.80;101563.19;5058452;28;58644;-82
2023/06/01 03:47:02;;;;;;;;;20.67;17.67;;;;;21.24;77.96;101565.06;5058091;28;67927;-80
2023/06/01 03:49:27;;;;;;;;;20.33;17.33;;;;;21.21;78.00;101563.34;5058974;28;45427;-82
2023/06/01 03:51:53;;;;;;;;;20.67;17.00;;;;;21.19;78.39;101563.34;5059103;28;45315;-79
2023/06/01 03:54:20;;;;;;;;;19.33;16.33;;;;;21.17;78.78;101558.94;5051846;28;63118;-78
2023/06/01 03:56:46;;;;;;;;;22.00;13.33;;;;;21.16;78.76;101567.94;5051452;28;46478;-79
2023/06/01 03:59:11;;;;;;;;;16.00;16.00;;;;;21.15;79.17;101561.66;5058451;28;45434;-82
2023/06/01 04:01:39;;;;;;;;;16.00;14.00;;;;;21.13;79.62;101565.28;5057713;28;63453;-83
2023/06/01 04:04:08;;;;;;;;;16.00;15.00;;;;;21.10;79.61;101563.56;5058784;28;45379;-79
2023/06/01 04:06:35;;;;;;;;;15.67;15.67;;;;;21.08;79.54;101564.50;5022037;28;47653;-80
2023/06/01 04:09:06;;;;;;;;;23.67;20.67;;;;;21.09;80.14;101574.31;5055536;28;45188;-82
2023/06/01 04:11:32;;;;;;;;;19.33;19.33;;;;;21.07;80.04;101574.34;5058731;28;45535;-79
2023/06/01 04:13:57;;;;;;;;;27.33;21.33;;;;;21.03;80.20;101561.91;5031986;28;45395;-81
2023/06/01 04:16:22;;;;;;;;;18.33;16.00;;;;;21.05;80.52;101572.63;5057338;28;70027;-80
2023/06/01 04:18:48;;;;;;;;;17.00;15.00;;;;;21.02;81.12;101570.00;5058697;28;51674;-80
2023/06/01 04:21:13;;;;;;;;;28.00;21.67;;;;;21.01;81.60;101576.28;5057517;28;63957;-81
2023/06/01 04:23:39;;;;;;;;;23.33;18.00;;;;;21.01;81.24;101574.50;5056895;28;46629;-78
2023/06/01 04:26:04;;;;;;;;;25.00;18.00;;;;;20.99;81.69;101576.34;5057914;28;46496;-79
2023/06/01 04:28:32;;;;;;;;;23.67;21.00;;;;;20.98;81.71;101579.91;5057033;28;45446;-79
2023/06/01 04:30:58;;;;;;;;;21.00;18.33;;;;;20.97;82.07;101582.63;5058275;28;45248;-79
2023/06/01 04:33:24;;;;;;;;;25.00;21.00;;;;;20.95;82.39;101588.03;5063245;28;45564;-79
2023/06/01 04:35:52;;;;;;;;;24.33;20.00;;;;;20.96;82.58;101583.56;5057235;28;46499;-80
2023/06/01 04:38:18;;;;;;;;;21.67;19.00;;;;;20.95;82.85;101584.47;5058478;28;45429;-80
2023/06/01 04:40:46;;;;;;;;;24.67;21.33;;;;;20.94;82.62;101580.91;5057756;28;45461;-78
2023/06/01 04:43:12;;;;;;;;;26.00;23.00;;;;;20.92;82.97;101585.41;5057658;28;45572;-79
2023/06/01 04:45:38;;;;;;;;;21.33;19.33;;;;;20.91;83.30;101589.91;5056112;28;47797;-78
2023/06/01 04:48:08;;;;;;;;;23.33;17.00;;;;;20.90;83.43;101590.81;5050459;28;46061;-79
2023/06/01 04:50:37;;;;;;;;;18.33;16.67;;;;;20.90;83.09;101592.63;5050982;28;45506;-77
2023/06/01 04:53:02;;;;;;;;;24.67;21.00;;;;;20.88;83.44;101595.34;5055333;28;45468;-77
2023/06/01 04:55:27;;;;;;;;;22.33;18.33;;;;;20.86;83.51;101589.09;5051234;28;45452;-77
2023/06/01 04:57:53;;;;;;;;;25.00;21.33;;;;;20.86;84.08;101599.84;5053677;28;68120;-76
2023/06/01 05:00:19;;;;;;;;;28.33;24.00;;;;;20.86;83.85;101605.19;5029579;28;55551;-78
2023/06/01 05:02:47;;;;;;;;;19.00;18.67;;;;;20.84;85.20;101601.69;5026181;28;45791;-75
2023/06/01 05:05:13;;;;;;;;;26.00;22.00;;;;;20.79;86.81;101606.25;5062355;28;46496;-76
2023/06/01 05:07:41;;;;;;;;;26.67;21.67;;;;;20.68;86.99;101592.16;5049164;28;45245;-79
2023/06/01 05:10:08;;;;;;;;;23.33;22.33;;;;;20.56;88.54;101603.06;5052396;28;45387;-74
2023/06/01 05:12:34;;;;;;;;;22.33;21.00;;;;;20.46;88.76;101594.34;5035496;28;45439;-76
2023/06/01 05:15:01;;;;;;;;;23.33;21.67;;;;;20.37;90.52;101603.38;5051234;28;46361;-75
2023/06/01 05:17:26;;;;;;;;;25.33;21.33;;;;;20.29;90.13;101597.25;5050041;28;45718;-76
2023/06/01 05:19:52;;;;;;;;;24.25;19.50;;;;;20.22;91.21;101600.06;5046477;28;45522;-75
2023/06/01 05:22:17;;;;;;;;;26.67;22.67;;;;;20.17;91.96;101607.31;5054175;28;45460;-75
2023/06/01 05:24:42;;;;;;;;;23.67;20.67;;;;;20.12;93.22;101607.38;5055200;28;72298;-76
2023/06/01 05:27:08;;;;;;;;;29.00;23.50;;;;;20.07;92.98;101603.88;5057412;28;45284;-76
2023/06/01 05:29:33;;;;;;;;;29.00;23.00;;;;;20.03;94.27;101604.88;5055134;28;62412;-77
2023/06/01 05:31:59;;;;;;;;;29.75;25.25;;;;;20.00;94.61;101613.81;5057280;28;45457;-77
2023/06/01 05:34:24;;;;;;;;;21.67;21.67;;;;;19.98;94.66;101614.78;5053685;28;63116;-77
2023/06/01 05:36:49;;;;;;;;;24.33;22.67;;;;;19.97;94.72;101610.28;5056475;28;57662;-78
2023/06/01 05:39:15;;;;;;;;;26.00;25.00;;;;;19.94;95.52;101607.69;5051384;28;45348;-75
2023/06/01 05:41:41;;;;;;;;;27.25;24.00;;;;;19.93;96.17;101605.91;5056585;28;58484;-76
2023/06/01 05:44:06;;;;;;;;;33.00;26.00;;;;;19.91;97.01;101613.06;5055068;28;47581;-76
2023/06/01 05:46:31;;;;;;;;;28.00;24.00;;;;;19.89;98.42;101624.72;5056147;28;45561;-76
2023/06/01 05:48:57;;;;;;;;;31.00;28.50;;;;;19.88;97.78;101617.59;5051865;28;45511;-75
2023/06/01 05:51:22;;;;;;;;;27.25;25.25;;;;;19.89;98.96;101626.50;5048063;28;61183;-76
2023/06/01 05:53:47;;;;;;;;;23.00;20.25;;;;;19.87;99.71;101623.88;5049821;28;67681;-75
2023/06/01 05:56:13;;;;;;;;;25.50;21.75;;;;;19.87;100.00;101623.88;5042212;28;69023;-76
2023/06/01 05:58:38;;;;;;;;;32.25;25.00;;;;;19.87;99.78;101633.69;5047198;28;45317;-74
2023/06/01 06:01:04;;;;;;;;;30.25;26.75;;;;;19.82;100.00;101625.72;5052178;28;62817;-75
2023/06/01 06:03:30;;;;;;;;;27.25;24.00;;;;;19.80;100.00;101626.63;5047679;28;46709;-76
2023/06/01 06:05:55;;;;;;;;;28.75;25.75;;;;;19.79;100.00;101628.44;5048846;28;45703;-75
2023/06/01 06:08:21;;;;;;;;;24.25;23.25;;;;;19.81;100.00;101620.38;5038289;28;64548;-76
2023/06/01 06:10:46;;;;;;;;;22.75;22.00;;;;;19.81;100.00;101621.25;5045247;28;59999;-76
2023/06/01 06:13:11;;;;;;;;;30.50;25.00;;;;;19.80;100.00;101630.19;5054415;28;69569;-75
2023/06/01 06:15:37;;;;;;;;;28.00;24.50;;;;;19.84;100.00;101623.91;5058047;28;45383;-76
2023/06/01 06:18:02;;;;;;;;;26.25;24.00;;;;;19.87;100.00;101628.34;5067197;28;65013;-74
2023/06/01 06:20:27;;;;;;;;;37.00;25.25;;;;;19.89;100.00;101637.22;5066462;28;45541;-75
2023/06/01 06:22:53;;;;;;;;;35.00;28.50;;;;;19.91;100.00;101631.84;5051492;28;47551;-76
2023/06/01 06:25:19;;;;;;;;;27.00;24.25;;;;;19.94;100.00;101631.81;5056006;28;45387;-77
2023/06/01 06:27:45;;;;;;;;;29.75;26.75;;;;;19.99;100.00;101624.59;5063371;28;45460;-77
2023/06/01 06:30:10;;;;;;;;;29.50;23.50;;;;;20.07;99.69;101625.34;5066587;28;45633;-78
2023/06/01 06:32:36;;;;;;;;;27.00;24.25;;;;;20.13;99.25;101625.22;5059699;28;46386;-78
2023/06/01 06:35:02;;;;;;;;;30.50;27.25;;;;;20.20;99.70;101626.03;5064652;28;65009;-76
2023/06/01 06:37:28;;;;;;;;;26.25;24.75;;;;;20.23;98.56;101624.19;5064048;28;45484;-79
2023/06/01 06:39:53;;;;;;;;;30.00;27.25;;;;;20.30;98.79;101628.56;5061889;28;45457;-78
2023/06/01 06:42:19;;;;;;;;;28.00;25.50;;;;;20.37;98.44;101632.91;5072768;28;67845;-78
2023/06/01 06:44:44;;;;;;;;;31.25;26.50;;;;;20.42;98.53;101624.78;5071030;28;45263;-77
2023/06/01 06:47:10;;;;;;;;;30.50;26.00;;;;;20.48;97.79;101629.19;5076124;28;45513;-78
2023/06/01 06:49:35;;;;;;;;;29.50;24.50;;;;;20.56;97.46;101635.28;5073667;28;45605;-77
2023/06/01 06:52:01;;;;;;;;;24.67;22.33;;;;;20.60;97.50;101628.94;5063420;28;46584;-77
2023/06/01 06:54:26;;;;;;;;;33.67;23.33;;;;;20.65;97.54;101630.66;5066243;28;45373;-77
2023/06/01 06:56:52;;;;;;;;;31.00;24.33;;;;;20.73;96.77;101632.31;5055383;28;64352;-78
2023/06/01 06:59:17;;;;;;;;;29.00;24.00;;;;;20.77;96.84;101629.53;5071196;28;45489;-78
2023/06/01 07:01:43;;;;;;;;;31.67;25.00;;;;;20.83;96.94;101629.44;5071134;28;46745;-78
2023/06/01 07:04:08;;;;;;;;;24.67;23.00;;;;;20.85;95.84;101622.22;5064138;28;45411;-78
2023/06/01 07:06:34;;;;;;;;;24.33;24.00;;;;;20.89;95.84;101626.63;5074405;28;45370;-76
2023/06/01 07:08:59;;;;;;;;;27.00;24.33;;;;;20.93;95.76;101624.75;5070482;28;48052;-79
2023/06/01 07:11:26;;;;;;;;;29.00;26.67;;;;;20.98;95.79;101627.34;5061825;28;55882;-78
2023/06/01 07:13:52;;;;;;;;;25.33;18.67;;;;;21.00;95.64;101629.13;5067963;28;45441;-77
2023/06/01 07:16:17;;;;;;;;;20.00;19.67;;;;;21.04;95.20;101632.59;5074245;28;45293;-78
2023/06/01 07:18:43;;;;;;;;;26.00;23.67;;;;;21.04;95.18;101632.59;5068641;28;61521;-77
2023/06/01 07:21:08;;;;;;;;;19.33;19.33;;;;;21.10;95.18;101628.03;5067500;28;62147;-78
2023/06/01 07:23:33;;;;;;;;;20.00;19.33;;;;;21.15;94.91;101630.63;5067016;28;67017;-77
2023/06/01 07:25:59;;;;;;;;;25.33;23.67;;;;;21.19;94.62;101630.50;5073025;28;65013;-78
2023/06/01 07:28:26;;;;;;;;;21.67;17.33;;;;;21.25;94.21;101629.47;5071245;28;45483;-77
2023/06/01 07:30:52;;;;;;;;;29.00;22.67;;;;;21.30;93.85;101635.69;5066777;28;46615;-78
2023/06/01 07:33:17;;;;;;;;;23.33;22.33;;;;;21.34;93.75;101633.84;5074275;28;45379;-78
2023/06/01 07:35:43;;;;;;;;;29.00;25.00;;;;;21.38;93.21;101630.16;5064455;28;45910;-77
2023/06/01 07:38:09;;;;;;;;;23.67;21.67;;;;;21.41;92.88;101622.94;5062611;28;45346;-78
2023/06/01 07:40:35;;;;;;;;;29.67;23.67;;;;;21.45;93.28;101634.47;5065038;28;46512;-78
2023/06/01 07:43:00;;;;;;;;;22.33;20.33;;;;;21.48;92.71;101629.06;5076239;28;45288;-78
2023/06/01 07:45:26;;;;;;;;;26.67;21.00;;;;;21.53;92.80;101639.72;5071153;28;45509;-78
2023/06/01 07:47:51;;;;;;;;;23.33;22.00;;;;;21.55;92.25;101635.19;5065990;28;45453;-78
2023/06/01 07:50:17;;;;;;;;;25.67;18.00;;;;;21.60;92.22;101649.41;5071345;28;45494;-79
2023/06/01 07:52:42;;;;;;;;;23.67;18.00;;;;;21.62;91.54;101645.75;5064945;28;45277;-78
2023/06/01 07:55:11;;;;;;;;;19.67;18.67;;;;;21.67;92.01;101632.22;5068340;28;45473;-79
2023/06/01 07:57:36;;;;;;;;;23.00;20.67;;;;;21.72;91.53;101638.38;5060560;28;46441;-79
2023/06/01 08:00:07;;;;;;;;;23.33;19.67;;;;;21.76;91.41;101632.03;5072508;28;45656;-78
2023/06/01 08:02:33;;;;;;;;;20.67;16.33;;;;;21.80;91.07;101625.66;5072680;28;45470;-79
2023/06/01 08:04:59;;;;;;;;;24.00;20.00;;;;;21.83;91.04;101630.94;5074510;28;57475;-78
2023/06/01 08:07:27;;;;;;;;;21.33;20.33;;;;;21.86;90.83;101633.56;5074532;28;45642;-79
2023/06/01 08:09:53;;;;;;;;;21.00;18.33;;;;;21.91;91.13;101636.16;5067913;28;46905;-79
2023/06/01 08:12:18;;;;;;;;;18.67;17.67;;;;;21.96;91.06;101632.44;5066764;28;45529;-79
2023/06/01 08:14:45;;;;;;;;;19.33;17.33;;;;;22.02;90.69;101630.53;5187513;22;61985;-79
2023/06/01 08:17:11;;;;;;;;;21.33;18.67;;;;;22.06;90.82;101630.44;5064057;28;45575;-79
2023/06/01 08:19:37;;;;;;;;;16.67;16.67;;;;;22.13;90.55;101641.97;5062202;28;47282;-79
2023/06/01 08:22:04;;;;;;;;;20.00;17.00;;;;;22.14;90.01;101644.59;5050551;28;45528;-78
2023/06/01 08:24:32;;;;;;;;;16.67;16.67;;;;;22.17;90.10;101636.47;5062778;28;46092;-79
2023/06/01 08:26:57;;;;;;;;;26.00;19.33;;;;;22.22;89.62;101637.25;5070082;28;45467;-78
2023/06/01 08:29:22;;;;;;;;;21.00;18.67;;;;;22.25;89.58;101638.97;5066784;28;46804;-79
2023/06/01 08:31:48;;;;;;;;;24.33;20.33;;;;;22.29;89.46;101640.66;5064602;28;67195;-79
2023/06/01 08:34:13;;;;;;;;;19.67;18.00;;;;;22.35;89.11;101643.19;5072114;28;57824;-79
2023/06/01 08:36:38;;;;;;;;;18.67;16.67;;;;;22.40;89.07;101640.38;5073628;28;62582;-79
2023/06/01 08:39:20;;;;;;;;;18.67;17.67;;;;;22.45;89.28;101642.03;5067557;28;49191;-78
2023/06/01 08:41:53;;;;;;;;;20.33;17.00;;;;;22.51;88.84;101640.13;5062755;28;45332;-79
2023/06/01 08:44:22;;;;;;;;;23.33;17.33;;;;;22.55;88.60;101631.03;5065595;28;45587;-78
2023/06/01 08:46:47;;;;;;;;;23.00;20.33;;;;;22.58;88.32;101630.94;5051032;28;49206;-79
2023/06/01 08:49:14;;;;;;;;;21.33;17.00;;;;;22.62;88.32;101640.72;5059198;28;67597;-79
2023/06/01 08:51:41;;;;;;;;;21.33;19.00;;;;;22.64;87.92;101638.91;5052298;28;45553;-79
2023/06/01 08:54:08;;;;;;;;;26.33;19.33;;;;;;;;5056926;28;65707;-78
2023/06/01 08:56:34;;;;;;;;;20.67;17.00;;;;;22.70;87.56;101630.66;5072148;28;45520;-79
2023/06/01 08:58:59;;;;;;;;;20.33;18.33;;;;;22.73;87.46;101630.56;5048647;28;47848;-79
2023/06/01 09:01:25;;;;;;;;;18.67;17.67;;;;;22.75;87.40;101620.63;5069342;28;45469;-79
2023/06/01 09:03:51;;;;;;;;;19.67;18.00;;;;;22.80;87.33;101625.88;5046679;28;45894;-78
2023/06/01 09:06:17;;;;;;;;;21.00;20.33;;;;;22.82;86.92;101619.53;5064186;28;45549;-79
2023/06/01 09:08:44;;;;;;;;;20.33;18.67;;;;;22.86;86.78;101623.03;5056552;28;66175;-79
2023/06/01 09:11:10;;;;;;;;;21.67;17.00;;;;;22.91;86.94;101627.41;5066020;28;45363;-79
2023/06/01 09:13:37;;;;;;;;;19.67;17.33;;;;;22.94;86.56;101621.91;5066342;28;65607;-79
2023/06/01 09:16:02;;;;;;;;;20.67;18.33;;;;;22.98;86.54;101625.41;5067412;28;46486;-79
2023/06/01 09:18:28;;;;;;;;;16.33;15.00;;;;;23.04;86.01;101610.91;5057677;28;46066;-79
2023/06/01 09:20:56;;;;;;;;;18.67;18.67;;;;;23.08;85.68;101618.84;5058687;28;45319;-78
2023/06/01 09:23:26;;;;;;;;;21.33;17.00;;;;;23.13;86.22;101616.91;5051863;28;45370;-79
2023/06/01 09:26:11;;;;;;;;;19.67;16.33;;;;;23.18;85.85;101611.41;5062668;28;45264;-79
2023/06/01 09:28:55;;;;;;;;;17.33;15.33;;;;;23.22;85.71;101613.97;5062562;28;46570;-79
2023/06/01 09:31:40;;;;;;;;;18.33;17.33;;;;;23.29;85.93;101614.66;5072127;28;45328;-79
2023/06/01 09:34:08;;;;;;;;;23.33;18.00;;;;;23.35;85.59;101617.16;5069203;28;45518;-81
2023/06/01 09:36:34;;;;;;;;;26.33;21.33;;;;;23.38;85.57;101600.88;5061833;28;45823;-79
2023/06/01 09:39:20;;;;;;;;;20.00;18.00;;;;;23.47;85.50;101610.53;5066485;28;46606;-81
2023/06/01 09:41:55;;;;;;;;;17.33;16.33;;;;;23.52;85.72;101606.75;5069238;28;45335;-77
2023/06/01 09:44:31;;;;;;;;;19.33;16.67;;;;;23.58;84.61;101600.28;5072029;28;45589;-77
2023/06/01 09:47:15;;;;;;;;;17.67;16.00;;;;;23.64;84.86;101593.84;5074786;28;45207;-80
2023/06/01 09:49:44;;;;;;;;;20.33;16.00;;;;;23.69;84.81;101603.56;5063737;28;47254;-80
2023/06/01 09:52:10;;;;;;;;;18.33;17.33;;;;;23.75;83.92;101607.88;5060541;28;55336;-75
2023/06/01 09:54:40;;;;;;;;;16.33;11.33;;;;;23.77;83.88;101593.44;5058685;28;45544;-79
2023/06/01 09:57:06;;;;;;;;;20.67;17.33;;;;;23.81;83.98;101596.94;5063923;28;45416;-80
2023/06/01 09:59:40;;;;;;;;;13.33;13.00;;;;;23.86;84.09;101588.66;5063825;28;47406;-77
2023/06/01 10:02:07;;;;;;;;;18.67;16.00;;;;;23.92;83.72;101592.06;5059745;28;45407;-78
2023/06/01 10:04:33;;;;;;;;;20.00;18.67;;;;;23.97;83.85;101583.81;5067067;28;45529;-79
2023/06/01 10:06:59;;;;;;;;;17.67;14.33;;;;;24.01;83.66;101583.66;5049725;28;45352;-76
2023/06/01 10:09:26;;;;;;;;;19.33;16.00;;;;;24.08;83.75;101576.25;5052772;28;46510;-76
2023/06/01 10:11:54;;;;;;;;;16.00;14.33;;;;;24.12;82.41;101571.63;5070573;28;45560;-77
2023/06/01 10:14:23;;;;;;;;;16.67;15.33;;;;;24.17;82.43;101578.63;5076331;28;45741;-75
2023/06/01 10:16:53;;;;;;;;;18.33;15.00;;;;;24.23;82.31;101580.25;5072019;28;45552;-75
2023/06/01 10:19:20;;;;;;;;;15.00;13.00;;;;;24.28;81.93;101579.16;5067387;28;47543;-76
2023/06/01 10:21:46;;;;;;;;;14.67;13.67;;;;;24.29;80.94;101577.34;5064702;28;45569;-78
2023/06/01 10:24:13;;;;;;;;;15.00;13.33;;;;;24.35;81.41;101569.06;5058804;28;46858;-77
2023/06/01 10:26:46;;;;;;;;;19.67;16.00;;;;;24.39;80.87;101561.72;5056334;28;45466;-80
2023/06/01 10:29:11;;;;;;;;;14.67;12.67;;;;;24.45;80.35;101573.22;5055319;28;46393;-78
2023/06/01 10:31:41;;;;;;;;;16.67;15.33;;;;;24.51;80.50;101570.31;5055730;28;59193;-77
2023/06/01 10:34:09;;;;;;;;;15.00;15.00;;;;;24.59;80.61;101564.63;5073812;28;45276;-77
2023/06/01 10:37:01;;;;;;;;;24.33;18.67;;;;;24.67;78.42;101569.78;5057321;28;45382;-79
2023/06/01 10:39:28;;;;;;;;;22.00;16.67;;;;;24.68;78.41;101572.41;5027776;28;46369;-76
2023/06/01 10:41:55;;;;;;;;;17.33;15.00;;;;;24.71;78.68;101563.28;5057651;28;45354;-77
2023/06/01 10:44:39;;;;;;;;;16.67;15.33;;;;;24.78;78.60;101564.84;5061718;28;45344;-78
2023/06/01 10:47:11;;;;;;;;;15.00;15.00;;;;;24.83;78.77;101561.03;5067329;28;45534;-78
2023/06/01 10:49:48;;;;;;;;;16.67;16.00;;;;;24.91;78.76;101557.16;5072515;28;47544;-78
2023/06/01 10:52:29;;;;;;;;;13.00;13.00;;;;;24.97;77.65;101563.22;5066041;28;45295;-78
2023/06/01 10:55:15;;;;;;;;;17.00;13.67;;;;;25.03;77.77;101552.19;5067674;28;45507;-79
2023/06/01 10:57:43;;;;;;;;;16.67;13.67;;;;;25.08;78.19;101550.22;5062827;28;45548;-79
2023/06/01 11:00:12;;;;;;;;;15.00;12.33;;;;;25.19;78.12;101554.34;5057592;28;47440;-77
2023/06/01 11:03:00;;;;;;;;;19.33;13.67;;;;;25.28;77.00;101551.28;5072928;28;45513;-77
2023/06/01 11:05:47;;;;;;;;;17.00;14.00;;;;;25.36;76.54;101551.00;5054897;28;45510;-77
2023/06/01 11:08:19;;;;;;;;;11.00;10.67;;;;;25.45;75.68;101553.31;5064915;28;45488;-79
2023/06/01 11:10:50;;;;;;;;;15.67;10.67;;;;;25.52;75.46;101549.47;5068746;28;47522;-78
2023/06/01 11:13:19;;;;;;;;;13.00;13.00;;;;;25.60;75.01;101544.59;5057048;28;45460;-78